Time;durP1;ratioP1;P1;durP2;ratioP2;P2;SDS_P1;SDS_P2;PMS_P1;PMS_P2;Temp;Humidity;BMP_temperature;BMP_pressure;BME280_temperature;BME280_humidity;BME280_pressure;Samples;Min_cycle;Max_cycle;Signal;HPM_P1;HPM_P2
2023/12/03 00:01:30;;;;;;;16.77;6.87;;;;;;;;;;5028350;28;20033;-58
2023/12/03 00:03:55;;;;;;;14.00;6.10;;;;;;;;;;5031356;28;20481;-58
2023/12/03 00:06:20;;;;;;;14.88;6.28;;;;;;;;;;5032040;28;20025;-58
2023/12/03 00:08:45;;;;;;;15.93;6.07;;;;;;;;;;5024722;28;20025;-58
2023/12/03 00:11:10;;;;;;;14.40;6.07;;;;;;;;;;5022279;28;20079;-58
2023/12/03 00:13:35;;;;;;;15.32;6.47;;;;;;;;;;5028059;28;20013;-58
2023/12/03 00:16:01;;;;;;;13.97;6.10;;;;;;;;;;5031806;28;20083;-58
2023/12/03 00:18:26;;;;;;;14.67;6.27;;;;;;;;;;5021989;28;20037;-58
2023/12/03 00:20:51;;;;;;;14.45;5.85;;;;;;;;;;5028195;28;20014;-58
2023/12/03 00:23:16;;;;;;;14.50;6.50;;;;;;;;;;5022488;28;20104;-59
2023/12/03 00:25:41;;;;;;;14.55;6.15;;;;;;;;;;5020352;28;20500;-59
2023/12/03 00:28:06;;;;;;;15.50;7.05;;;;;;;;;;5029512;28;20025;-58
2023/12/03 00:30:31;;;;;;;17.10;6.72;;;;;;;;;;5024440;28;20038;-58
2023/12/03 00:32:57;;;;;;;14.07;6.43;;;;;;;;;;5023626;28;20524;-58
2023/12/03 00:35:22;;;;;;;17.08;6.55;;;;;;;;;;5028215;28;20024;-59
2023/12/03 00:37:47;;;;;;;14.98;6.75;;;;;;;;;;5028235;28;20041;-58
2023/12/03 00:40:12;;;;;;;14.80;6.22;;;;;;;;;;5026378;28;20561;-59
2023/12/03 00:42:37;;;;;;;15.37;6.60;;;;;;;;;;5021431;28;20026;-58
2023/12/03 00:45:03;;;;;;;16.73;6.57;;;;;;;;;;5026000;28;20482;-59
2023/12/03 00:47:28;;;;;;;14.97;6.77;;;;;;;;;;5026133;28;20456;-58
2023/12/03 00:49:53;;;;;;;14.70;7.00;;;;;;;;;;5031074;28;20534;-59
2023/12/03 00:52:18;;;;;;;15.88;6.68;;;;;;;;;;5023372;28;20022;-58
2023/12/03 00:54:43;;;;;;;15.43;6.87;;;;;;;;;;5021467;28;20030;-58
2023/12/03 00:57:08;;;;;;;15.23;6.70;;;;;;;;;;5030752;28;20047;-58
2023/12/03 00:59:33;;;;;;;16.70;6.95;;;;;;;;;;5024002;28;20018;-58
2023/12/03 01:01:58;;;;;;;16.75;7.13;;;;;;;;;;5019001;28;20024;-58
2023/12/03 01:04:24;;;;;;;16.57;6.63;;;;;;;;;;5029288;28;20397;-59
2023/12/03 01:06:49;;;;;;;15.82;6.28;;;;;;;;;;5031286;28;20013;-59
2023/12/03 01:09:14;;;;;;;15.77;6.93;;;;;;;;;;5022039;28;20509;-59
2023/12/03 01:11:41;;;;;;;18.48;6.95;;;;;;;;;;5017181;28;20018;-58
2023/12/03 01:14:06;;;;;;;16.38;7.20;;;;;;;;;;5028476;28;20034;-59
2023/12/03 01:16:32;;;;;;;15.65;6.85;;;;;;;;;;5025917;28;20013;-59
2023/12/03 01:18:57;;;;;;;19.48;7.30;;;;;;;;;;5027929;28;20033;-58
2023/12/03 01:21:22;;;;;;;15.90;6.85;;;;;;;;;;5024494;28;20101;-59
2023/12/03 01:23:47;;;;;;;17.92;7.80;;;;;;;;;;5027946;28;20103;-58
2023/12/03 01:26:12;;;;;;;17.67;7.55;;;;;;;;;;5022026;28;20020;-58
2023/12/03 01:28:37;;;;;;;18.23;6.72;;;;;;;;;;5019969;28;20049;-58
2023/12/03 01:31:03;;;;;;;19.08;7.35;;;;;;;;;;5028554;28;20037;-58
2023/12/03 01:33:28;;;;;;;16.63;7.03;;;;;;;;;;5027976;28;20030;-59
2023/12/03 01:35:54;;;;;;;19.13;8.02;;;;;;;;;;5025311;28;20103;-58
2023/12/03 01:38:19;;;;;;;17.42;7.55;;;;;;;;;;5022104;28;20026;-57
2023/12/03 01:40:51;;;;;;;18.45;7.15;;;;;;;;;;5021648;28;20057;-58
2023/12/03 01:43:16;;;;;;;20.60;8.20;;;;;;;;;;5025845;28;20021;-58
2023/12/03 01:45:41;;;;;;;20.20;7.75;;;;;;;;;;5029021;28;20048;-59
2023/12/03 01:48:07;;;;;;;17.67;7.07;;;;;;;;;;5026081;28;20029;-58
2023/12/03 01:50:32;;;;;;;18.73;7.82;;;;;;;;;;5025206;28;20057;-58
2023/12/03 01:52:57;;;;;;;17.40;7.15;;;;;;;;;;5027043;28;20021;-58
2023/12/03 01:55:23;;;;;;;16.63;7.00;;;;;;;;;;5022511;28;20022;-58
2023/12/03 01:57:48;;;;;;;18.05;7.05;;;;;;;;;;5025019;28;20040;-58
2023/12/03 02:00:13;;;;;;;18.60;7.40;;;;;;;;;;5021565;28;20030;-59
2023/12/03 02:02:39;;;;;;;18.97;7.70;;;;;;;;;;5029094;28;20654;-58
2023/12/03 02:05:04;;;;;;;18.83;7.45;;;;;;;;;;5023554;28;20459;-58
2023/12/03 02:07:29;;;;;;;20.13;7.70;;;;;;;;;;5028125;28;20548;-57
2023/12/03 02:09:55;;;;;;;20.88;8.15;;;;;;;;;;5026363;28;20471;-58
2023/12/03 02:12:21;;;;;;;19.10;7.53;;;;;;;;;;5025999;28;20039;-58
2023/12/03 02:14:46;;;;;;;19.85;7.60;;;;;;;;;;5024090;28;20458;-58
2023/12/03 02:17:11;;;;;;;18.13;7.33;;;;;;;;;;5022143;28;20370;-58
2023/12/03 02:19:36;;;;;;;18.97;7.67;;;;;;;;;;5025988;28;20037;-58
2023/12/03 02:22:01;;;;;;;19.17;7.53;;;;;;;;;;5028607;28;20056;-57
2023/12/03 02:24:27;;;;;;;18.03;7.33;;;;;;;;;;5024800;28;20580;-57
2023/12/03 02:26:52;;;;;;;18.70;7.47;;;;;;;;;;5024637;28;20492;-58
2023/12/03 02:29:17;;;;;;;19.02;7.57;;;;;;;;;;5025382;28;20124;-57
2023/12/03 02:31:42;;;;;;;18.92;7.57;;;;;;;;;;5027470;28;20029;-61
2023/12/03 02:34:09;;;;;;;19.88;7.88;;;;;;;;;;5028526;28;20379;-57
2023/12/03 02:36:34;;;;;;;18.52;7.72;;;;;;;;;;5018403;28;20025;-57
2023/12/03 02:38:59;;;;;;;20.00;7.25;;;;;;;;;;5029030;28;20021;-58
2023/12/03 02:41:24;;;;;;;19.23;7.68;;;;;;;;;;5027275;28;20452;-58
2023/12/03 02:43:50;;;;;;;16.98;6.82;;;;;;;;;;5023352;28;20064;-57
2023/12/03 02:46:15;;;;;;;19.90;7.47;;;;;;;;;;5028264;28;20387;-58
2023/12/03 02:48:40;;;;;;;21.92;7.82;;;;;;;;;;5028198;28;20029;-57
2023/12/03 02:51:05;;;;;;;20.33;7.53;;;;;;;;;;5025470;28;20120;-58
2023/12/03 02:53:30;;;;;;;20.08;8.13;;;;;;;;;;5026104;28;20397;-58
2023/12/03 02:55:58;;;;;;;17.55;7.45;;;;;;;;;;5026194;28;20180;-57
2023/12/03 02:58:23;;;;;;;;;;;;;;;;;;5014511;28;20038;-57
2023/12/03 03:00:48;;;;;;;21.42;7.60;;;;;;;;;;5028354;28;20026;-57
2023/12/03 03:03:13;;;;;;;18.38;7.18;;;;;;;;;;5027851;28;20135;-57
2023/12/03 03:05:38;;;;;;;20.63;7.67;;;;;;;;;;5024528;28;20496;-58
2023/12/03 03:08:03;;;;;;;17.55;6.93;;;;;;;;;;5010932;28;20079;-57
2023/12/03 03:10:28;;;;;;;20.73;7.77;;;;;;;;;;5017616;28;20101;-57
2023/12/03 03:12:53;;;;;;;18.58;7.15;;;;;;;;;;5023500;28;20087;-57
2023/12/03 03:15:19;;;;;;;20.55;8.05;;;;;;;;;;5024301;28;20030;-58
2023/12/03 03:17:44;;;;;;;18.43;7.10;;;;;;;;;;5025558;28;20025;-57
2023/12/03 03:20:09;;;;;;;20.20;7.45;;;;;;;;;;5028215;28;20034;-58
2023/12/03 03:22:34;;;;;;;17.90;7.40;;;;;;;;;;5014180;28;20029;-58
2023/12/03 03:24:59;;;;;;;21.13;7.60;;;;;;;;;;5016970;28;20140;-60
2023/12/03 03:27:25;;;;;;;22.40;8.90;;;;;;;;;;5019229;28;20428;-59
2023/12/03 03:29:50;;;;;;;21.97;8.10;;;;;;;;;;5024241;28;20025;-57
2023/12/03 03:32:15;;;;;;;19.02;8.02;;;;;;;;;;5024460;28;20049;-57
2023/12/03 03:34:40;;;;;;;21.67;8.20;;;;;;;;;;5023422;28;20022;-58
2023/12/03 03:37:05;;;;;;;21.27;8.23;;;;;;;;;;5022660;28;20018;-59
2023/12/03 03:39:30;;;;;;;20.40;8.40;;;;;;;;;;5019528;28;20026;-58
2023/12/03 03:41:55;;;;;;;20.63;8.33;;;;;;;;;;5022105;28;20060;-59
2023/12/03 03:44:21;;;;;;;18.58;7.78;;;;;;;;;;5027587;28;20049;-58
2023/12/03 03:46:46;;;;;;;19.60;8.33;;;;;;;;;;5031279;28;20052;-58
2023/12/03 03:49:11;;;;;;;21.07;8.37;;;;;;;;;;5026676;28;21054;-58
2023/12/03 03:51:36;;;;;;;20.58;8.90;;;;;;;;;;5024607;28;20022;-58
2023/12/03 03:54:01;;;;;;;21.35;8.30;;;;;;;;;;5019571;28;20021;-58
2023/12/03 03:56:26;;;;;;;20.47;8.37;;;;;;;;;;5017816;28;20236;-58
2023/12/03 03:58:52;;;;;;;19.13;8.13;;;;;;;;;;5026583;28;20482;-58
2023/12/03 04:01:17;;;;;;;19.70;7.63;;;;;;;;;;5026036;28;20497;-58
2023/12/03 04:03:42;;;;;;;19.50;7.53;;;;;;;;;;5029980;28;20025;-59
2023/12/03 04:06:08;;;;;;;17.77;7.60;;;;;;;;;;5031516;28;20077;-59
2023/12/03 04:08:33;;;;;;;18.70;7.90;;;;;;;;;;5021370;28;20385;-59
2023/12/03 04:11:02;;;;;;;19.08;8.40;;;;;;;;;;5024699;28;20032;-59
2023/12/03 04:13:27;;;;;;;16.58;7.50;;;;;;;;;;5028286;28;20122;-59
2023/12/03 04:15:52;;;;;;;19.33;7.28;;;;;;;;;;5028381;28;20060;-59
2023/12/03 04:18:17;;;;;;;16.33;7.43;;;;;;;;;;5028135;28;20048;-59
2023/12/03 04:20:43;;;;;;;16.55;7.45;;;;;;;;;;5017098;28;20021;-58
2023/12/03 04:23:08;;;;;;;18.13;7.10;;;;;;;;;;5015644;28;20084;-58
2023/12/03 04:25:33;;;;;;;19.00;7.50;;;;;;;;;;5027847;28;20025;-59
2023/12/03 04:27:58;;;;;;;17.07;7.50;;;;;;;;;;5031964;28;20013;-59
2023/12/03 04:30:23;;;;;;;17.90;7.60;;;;;;;;;;5028868;28;20079;-58
2023/12/03 04:32:48;;;;;;;18.90;8.23;;;;;;;;;;5025479;28;20036;-59
2023/12/03 04:35:14;;;;;;;17.42;7.70;;;;;;;;;;5027677;28;20393;-59
2023/12/03 04:37:39;;;;;;;16.48;7.28;;;;;;;;;;5027247;28;20034;-59
2023/12/03 04:40:05;;;;;;;18.65;7.28;;;;;;;;;;5020380;28;20072;-58
2023/12/03 04:42:30;;;;;;;16.95;7.35;;;;;;;;;;5026277;28;20105;-58
2023/12/03 04:44:55;;;;;;;16.35;7.07;;;;;;;;;;5024142;28;20014;-59
2023/12/03 04:47:20;;;;;;;15.98;6.95;;;;;;;;;;5018702;28;20038;-59
2023/12/03 04:49:46;;;;;;;17.67;7.63;;;;;;;;;;5022363;28;20022;-59
2023/12/03 04:52:11;;;;;;;14.98;6.82;;;;;;;;;;5024990;28;20050;-58
2023/12/03 04:54:36;;;;;;;21.08;8.27;;;;;;;;;;5023735;28;20540;-58
2023/12/03 04:57:01;;;;;;;16.93;7.27;;;;;;;;;;5027568;28;20023;-59
2023/12/03 04:59:26;;;;;;;16.20;7.23;;;;;;;;;;5020916;28;20069;-59
2023/12/03 05:01:51;;;;;;;15.90;6.90;;;;;;;;;;5020743;28;20112;-59
2023/12/03 05:04:17;;;;;;;16.50;6.53;;;;;;;;;;5021513;28;20064;-59
2023/12/03 05:06:42;;;;;;;15.65;7.18;;;;;;;;;;5023833;28;20389;-59
2023/12/03 05:09:08;;;;;;;18.63;6.85;;;;;;;;;;5025424;28;20037;-58
2023/12/03 05:11:38;;;;;;;17.10;6.82;;;;;;;;;;5021307;28;20029;-59
2023/12/03 05:14:03;;;;;;;16.45;7.20;;;;;;;;;;5027690;28;20080;-58
2023/12/03 05:16:28;;;;;;;15.70;6.38;;;;;;;;;;5022435;28;20034;-58
2023/12/03 05:18:53;;;;;;;15.50;6.82;;;;;;;;;;5030658;28;20029;-58
2023/12/03 05:21:18;;;;;;;17.88;7.53;;;;;;;;;;5021465;28;20433;-58
2023/12/03 05:23:43;;;;;;;17.58;7.10;;;;;;;;;;5028943;28;20052;-59
2023/12/03 05:26:09;;;;;;;13.85;6.07;;;;;;;;;;5022165;28;20034;-58
2023/12/03 05:28:35;;;;;;;15.80;6.40;;;;;;;;;;5023233;28;20026;-58
2023/12/03 05:31:00;;;;;;;14.88;6.45;;;;;;;;;;5016322;28;20038;-58
2023/12/03 05:33:25;;;;;;;15.43;6.43;;;;;;;;;;5029487;28;20029;-59
2023/12/03 05:35:50;;;;;;;14.95;6.78;;;;;;;;;;5024678;28;20017;-58
2023/12/03 05:38:15;;;;;;;17.40;7.43;;;;;;;;;;5022893;28;20061;-58
2023/12/03 05:40:40;;;;;;;15.77;7.07;;;;;;;;;;5020593;28;20039;-58
2023/12/03 05:43:05;;;;;;;17.33;6.57;;;;;;;;;;5027296;28;20475;-59
2023/12/03 05:45:31;;;;;;;16.60;7.25;;;;;;;;;;5024175;28;20544;-59
2023/12/03 05:47:56;;;;;;;14.13;6.18;;;;;;;;;;5012476;28;20053;-59
2023/12/03 05:50:22;;;;;;;14.68;6.07;;;;;;;;;;5025279;28;20030;-59
2023/12/03 05:52:47;;;;;;;16.73;6.60;;;;;;;;;;5024365;28;20021;-59
2023/12/03 05:55:12;;;;;;;16.35;6.20;;;;;;;;;;5023502;28;20028;-58
2023/12/03 05:57:37;;;;;;;15.48;6.78;;;;;;;;;;5024319;28;20026;-59
2023/12/03 06:00:03;;;;;;;16.67;7.07;;;;;;;;;;5029199;28;20429;-59
2023/12/03 06:02:28;;;;;;;17.83;7.13;;;;;;;;;;5023118;28;20022;-59
2023/12/03 06:04:53;;;;;;;16.57;6.77;;;;;;;;;;5023473;28;20053;-59
2023/12/03 06:07:18;;;;;;;18.05;7.38;;;;;;;;;;5022813;28;20053;-59
2023/12/03 06:09:43;;;;;;;16.30;7.10;;;;;;;;;;5021792;28;20025;-59
2023/12/03 06:12:09;;;;;;;15.25;6.82;;;;;;;;;;5028784;28;20394;-59
2023/12/03 06:14:34;;;;;;;16.67;7.00;;;;;;;;;;5025526;28;20386;-58
2023/12/03 06:16:59;;;;;;;16.27;6.72;;;;;;;;;;5025828;28;20030;-59
2023/12/03 06:19:24;;;;;;;14.95;6.38;;;;;;;;;;5027628;28;20028;-59
2023/12/03 06:21:49;;;;;;;15.68;6.75;;;;;;;;;;5021002;28;20165;-58
2023/12/03 06:24:15;;;;;;;16.58;7.25;;;;;;;;;;5028543;28;20397;-59
2023/12/03 06:26:41;;;;;;;17.27;6.93;;;;;;;;;;5014961;28;20025;-59
2023/12/03 06:29:06;;;;;;;17.95;6.60;;;;;;;;;;5014601;28;20032;-59
2023/12/03 06:31:32;;;;;;;20.23;7.60;;;;;;;;;;5029083;28;20565;-58
2023/12/03 06:33:57;;;;;;;16.30;7.00;;;;;;;;;;5021705;28;20381;-58
2023/12/03 06:36:24;;;;;;;17.77;7.33;;;;;;;;;;5020453;28;20021;-58
2023/12/03 06:38:49;;;;;;;15.38;6.05;;;;;;;;;;5021011;28;20025;-58
2023/12/03 06:41:15;;;;;;;17.50;7.10;;;;;;;;;;5029509;28;20025;-59
2023/12/03 06:43:40;;;;;;;16.67;6.88;;;;;;;;;;5027262;28;20025;-59
2023/12/03 06:46:05;;;;;;;18.10;7.68;;;;;;;;;;5024658;28;20063;-59
2023/12/03 06:48:31;;;;;;;15.90;6.63;;;;;;;;;;5018916;28;20366;-59
2023/12/03 06:50:56;;;;;;;17.50;6.67;;;;;;;;;;5026803;28;20036;-57
2023/12/03 06:53:21;;;;;;;17.65;7.30;;;;;;;;;;5018469;28;20029;-57
2023/12/03 06:55:46;;;;;;;18.97;7.50;;;;;;;;;;5016087;28;20018;-57
2023/12/03 06:58:11;;;;;;;16.13;6.53;;;;;;;;;;5011630;28;20784;-57
2023/12/03 07:00:37;;;;;;;16.00;6.60;;;;;;;;;;5023697;28;20067;-58
2023/12/03 07:03:02;;;;;;;18.33;7.57;;;;;;;;;;5021170;28;20037;-58
2023/12/03 07:05:27;;;;;;;18.75;6.97;;;;;;;;;;5023949;28;20030;-58
2023/12/03 07:07:52;;;;;;;18.20;7.33;;;;;;;;;;5028027;28;20017;-58
2023/12/03 07:10:18;;;;;;;18.83;7.57;;;;;;;;;;5016272;28;20029;-58
2023/12/03 07:12:43;;;;;;;15.60;6.77;;;;;;;;;;5021744;28;20024;-59
2023/12/03 07:15:08;;;;;;;19.83;7.73;;;;;;;;;;5026689;28;20479;-60
2023/12/03 07:17:33;;;;;;;17.93;7.50;;;;;;;;;;5026008;28;20026;-59
2023/12/03 07:19:58;;;;;;;16.77;6.95;;;;;;;;;;5027855;28;20096;-59
2023/12/03 07:22:24;;;;;;;20.02;7.95;;;;;;;;;;5025407;28;20047;-59
2023/12/03 07:24:49;;;;;;;19.17;7.00;;;;;;;;;;5026012;28;20500;-58
2023/12/03 07:27:16;;;;;;;18.67;7.20;;;;;;;;;;5021616;28;20770;-57
2023/12/03 07:29:41;;;;;;;18.27;7.43;;;;;;;;;;5020450;28;20037;-58
2023/12/03 07:32:06;;;;;;;19.17;7.53;;;;;;;;;;5025699;28;20021;-58
2023/12/03 07:34:31;;;;;;;18.27;7.13;;;;;;;;;;5023315;28;20029;-59
2023/12/03 07:36:57;;;;;;;20.63;7.87;;;;;;;;;;5028759;28;20017;-60
2023/12/03 07:39:23;;;;;;;20.85;7.65;;;;;;;;;;5027846;28;20033;-59
2023/12/03 07:41:50;;;;;;;18.45;6.82;;;;;;;;;;5028138;28;20021;-59
2023/12/03 07:44:15;;;;;;;21.08;7.85;;;;;;;;;;5027965;28;20037;-59
2023/12/03 07:46:40;;;;;;;18.33;7.32;;;;;;;;;;5027149;28;20026;-57
2023/12/03 07:49:06;;;;;;;18.52;7.50;;;;;;;;;;5031399;28;20029;-59
2023/12/03 07:51:31;;;;;;;18.33;7.80;;;;;;;;;;5031978;28;20021;-59
2023/12/03 07:53:56;;;;;;;23.83;8.30;;;;;;;;;;5028814;28;20065;-59
2023/12/03 07:56:21;;;;;;;18.25;7.80;;;;;;;;;;5024943;28;20509;-57
2023/12/03 07:58:46;;;;;;;19.37;8.17;;;;;;;;;;5030116;28;20028;-58
2023/12/03 08:01:11;;;;;;;19.90;8.35;;;;;;;;;;5024835;28;20563;-57
2023/12/03 08:03:36;;;;;;;21.48;8.70;;;;;;;;;;5022857;28;20037;-59
2023/12/03 08:06:02;;;;;;;19.45;8.07;;;;;;;;;;5030774;28;20025;-58
2023/12/03 08:08:27;;;;;;;20.33;8.38;;;;;;;;;;5019750;28;20083;-58
2023/12/03 08:10:52;;;;;;;21.38;8.45;;;;;;;;;;5030581;28;20110;-59
2023/12/03 08:13:17;;;;;;;19.30;8.50;;;;;;;;;;5028425;28;20076;-57
2023/12/03 08:15:42;;;;;;;18.40;7.82;;;;;;;;;;5024768;28;20029;-57
2023/12/03 08:18:07;;;;;;;20.77;8.75;;;;;;;;;;5026472;28;20037;-58
2023/12/03 08:20:33;;;;;;;20.30;8.90;;;;;;;;;;5028845;28;20087;-58
2023/12/03 08:22:58;;;;;;;19.20;8.73;;;;;;;;;;5029185;28;20441;-58
2023/12/03 08:25:23;;;;;;;19.98;8.77;;;;;;;;;;5024263;28;20071;-57
2023/12/03 08:27:48;;;;;;;18.13;7.65;;;;;;;;;;5024272;28;20030;-57
2023/12/03 08:30:13;;;;;;;18.40;7.70;;;;;;;;;;5029180;28;20021;-57
2023/12/03 08:32:39;;;;;;;18.60;7.83;;;;;;;;;;5030837;28;20112;-58
2023/12/03 08:35:04;;;;;;;20.58;7.85;;;;;;;;;;5026543;28;20118;-58
2023/12/03 08:37:29;;;;;;;16.58;7.40;;;;;;;;;;5028039;28;20045;-58
2023/12/03 08:39:54;;;;;;;16.77;6.90;;;;;;;;;;5022618;28;20095;-58
2023/12/03 08:42:20;;;;;;;18.53;8.20;;;;;;;;;;5020627;28;20028;-59
2023/12/03 08:44:45;;;;;;;17.13;7.33;;;;;;;;;;5023452;28;20022;-59
2023/12/03 08:47:10;;;;;;;15.95;6.93;;;;;;;;;;5029269;28;20053;-58
2023/12/03 08:49:35;;;;;;;17.25;6.78;;;;;;;;;;5027259;28;20033;-58
2023/12/03 08:52:01;;;;;;;16.58;6.38;;;;;;;;;;5030858;28;20107;-59
2023/12/03 08:54:26;;;;;;;17.13;7.55;;;;;;;;;;5030779;28;20023;-60
2023/12/03 08:56:51;;;;;;;15.13;6.90;;;;;;;;;;5030040;28;20481;-60
2023/12/03 08:59:16;;;;;;;14.53;6.03;;;;;;;;;;5028010;28;20467;-59
2023/12/03 09:01:41;;;;;;;14.87;6.93;;;;;;;;;;5025160;28;20036;-59
2023/12/03 09:04:06;;;;;;;17.15;7.35;;;;;;;;;;5020532;28;20048;-59
2023/12/03 09:06:32;;;;;;;15.57;6.85;;;;;;;;;;5023878;28;20021;-59
2023/12/03 09:08:57;;;;;;;17.73;7.37;;;;;;;;;;5018001;28;20026;-59
2023/12/03 09:11:23;;;;;;;16.37;7.03;;;;;;;;;;5024805;28;20059;-59
2023/12/03 09:13:48;;;;;;;15.57;6.95;;;;;;;;;;5025874;28;20393;-60
2023/12/03 09:16:13;;;;;;;15.53;7.27;;;;;;;;;;5022038;28;20363;-59
2023/12/03 09:18:38;;;;;;;15.80;7.27;;;;;;;;;;5024038;28;20972;-59
2023/12/03 09:21:06;;;;;;;16.48;6.75;;;;;;;;;;5023061;28;20108;-59
2023/12/03 09:23:31;;;;;;;17.80;7.72;;;;;;;;;;5023912;28;20034;-59
2023/12/03 09:25:57;;;;;;;16.70;8.23;;;;;;;;;;5027323;28;20025;-59
2023/12/03 09:28:22;;;;;;;17.58;7.32;;;;;;;;;;5029201;28;20548;-59
2023/12/03 09:30:47;;;;;;;15.85;7.07;;;;;;;;;;5026773;28;20029;-59
2023/12/03 09:33:12;;;;;;;15.13;6.63;;;;;;;;;;5027548;28;20033;-59
2023/12/03 09:35:37;;;;;;;14.03;6.50;;;;;;;;;;5024339;28;20367;-59
2023/12/03 09:38:02;;;;;;;14.77;7.20;;;;;;;;;;5019893;28;20014;-59
2023/12/03 09:40:27;;;;;;;13.52;6.28;;;;;;;;;;5028681;28;20032;-59
2023/12/03 09:42:53;;;;;;;15.97;6.93;;;;;;;;;;5030285;28;20034;-59
2023/12/03 09:45:19;;;;;;;12.60;5.83;;;;;;;;;;5023559;28;20124;-59
2023/12/03 09:47:48;;;;;;;15.13;6.38;;;;;;;;;;5022059;28;20370;-60
2023/12/03 09:50:13;;;;;;;14.43;6.60;;;;;;;;;;5021372;28;20094;-59
2023/12/03 09:52:39;;;;;;;15.70;6.68;;;;;;;;;;5029408;28;20033;-60
2023/12/03 09:55:05;;;;;;;16.52;6.88;;;;;;;;;;5024860;28;20022;-63
2023/12/03 09:57:30;;;;;;;14.52;6.18;;;;;;;;;;5018356;28;20021;-60
2023/12/03 10:00:00;;;;;;;13.73;6.07;;;;;;;;;;5018323;28;20037;-59
2023/12/03 10:02:28;;;;;;;15.40;6.70;;;;;;;;;;5027296;28;20038;-59
2023/12/03 10:04:53;;;;;;;15.32;6.80;;;;;;;;;;5028595;28;20083;-59
2023/12/03 10:07:20;;;;;;;14.65;6.55;;;;;;;;;;5023173;28;20018;-59
2023/12/03 10:09:47;;;;;;;13.18;5.82;;;;;;;;;;5029587;28;20132;-58
2023/12/03 10:12:14;;;;;;;13.35;5.57;;;;;;;;;;5030797;28;20065;-58
2023/12/03 10:14:40;;;;;;;13.95;5.90;;;;;;;;;;5030432;28;20108;-59
2023/12/03 10:17:05;;;;;;;14.10;5.95;;;;;;;;;;5025209;28;20028;-60
2023/12/03 10:19:31;;;;;;;12.70;5.80;;;;;;;;;;5026081;28;20472;-60
2023/12/03 10:21:57;;;;;;;12.68;5.60;;;;;;;;;;5030390;28;20463;-59
2023/12/03 10:24:23;;;;;;;13.35;6.57;;;;;;;;;;5028538;28;20034;-61
2023/12/03 10:26:48;;;;;;;13.60;6.47;;;;;;;;;;5030404;28;20037;-60
2023/12/03 10:29:15;;;;;;;15.55;6.75;;;;;;;;;;5034513;28;20025;-60
2023/12/03 10:31:41;;;;;;;16.13;6.78;;;;;;;;;;5029370;28;20473;-60
2023/12/03 10:34:06;;;;;;;14.18;6.03;;;;;;;;;;5030034;28;20032;-60
2023/12/03 10:36:31;;;;;;;12.83;5.93;;;;;;;;;;5027872;28;20023;-60
2023/12/03 10:38:56;;;;;;;12.47;5.97;;;;;;;;;;5023600;28;20084;-61
2023/12/03 10:41:22;;;;;;;15.90;6.32;;;;;;;;;;5027676;28;20484;-60
2023/12/03 10:43:48;;;;;;;13.43;6.10;;;;;;;;;;5017122;28;20022;-60
2023/12/03 10:46:13;;;;;;;15.82;6.80;;;;;;;;;;5021560;28;20029;-60
2023/12/03 10:48:38;;;;;;;14.38;6.20;;;;;;;;;;5024201;28;20022;-60
2023/12/03 10:51:05;;;;;;;13.13;6.15;;;;;;;;;;5017647;28;20029;-60
2023/12/03 10:53:31;;;;;;;12.85;6.40;;;;;;;;;;5025598;28;20009;-60
2023/12/03 10:55:56;;;;;;;13.02;6.15;;;;;;;;;;5025100;28;20068;-60
2023/12/03 10:58:22;;;;;;;14.55;6.72;;;;;;;;;;5020653;28;20038;-60
2023/12/03 11:00:51;;;;;;;15.83;6.17;;;;;;;;;;5022980;28;20116;-60
2023/12/03 11:03:43;;;;;;;12.88;6.25;;;;;;;;;;5027535;28;20553;-60
2023/12/03 11:06:08;;;;;;;12.40;5.80;;;;;;;;;;5020818;28;20040;-60
2023/12/03 11:08:33;;;;;;;13.70;6.07;;;;;;;;;;5024458;28;20026;-60
2023/12/03 11:10:59;;;;;;;14.30;6.50;;;;;;;;;;5025800;28;20025;-60
2023/12/03 11:13:26;;;;;;;15.10;6.38;;;;;;;;;;5024889;28;20022;-60
2023/12/03 11:15:52;;;;;;;11.93;5.97;;;;;;;;;;5031398;28;20052;-61
2023/12/03 11:18:18;;;;;;;12.15;6.00;;;;;;;;;;5031201;28;20056;-60
2023/12/03 11:20:44;;;;;;;12.98;6.80;;;;;;;;;;5031515;28;20041;-60
2023/12/03 11:23:13;;;;;;;14.65;6.53;;;;;;;;;;5032154;28;20062;-60
2023/12/03 11:25:42;;;;;;;14.38;6.45;;;;;;;;;;5029089;28;20033;-59
2023/12/03 11:28:07;;;;;;;13.48;5.95;;;;;;;;;;5031619;28;20029;-59
2023/12/03 11:30:36;;;;;;;15.45;6.88;;;;;;;;;;5031065;28;20036;-59
2023/12/03 11:33:05;;;;;;;14.82;6.47;;;;;;;;;;5024792;28;20024;-59
2023/12/03 11:35:30;;;;;;;13.88;6.10;;;;;;;;;;5031531;28;20029;-59
2023/12/03 11:37:55;;;;;;;13.27;6.30;;;;;;;;;;5025572;28;20032;-60
2023/12/03 11:40:32;;;;;;;15.10;6.50;;;;;;;;;;5026678;28;20505;-60
2023/12/03 11:42:57;;;;;;;13.52;6.30;;;;;;;;;;5030461;28;20029;-60
2023/12/03 11:45:23;;;;;;;15.13;6.53;;;;;;;;;;5029911;28;20029;-59
2023/12/03 11:48:05;;;;;;;15.57;7.50;;;;;;;;;;5030753;28;20392;-59
2023/12/03 11:50:31;;;;;;;15.30;6.60;;;;;;;;;;5031518;28;20033;-60
2023/12/03 11:52:56;;;;;;;15.15;7.05;;;;;;;;;;5031592;28;20043;-59
2023/12/03 11:55:22;;;;;;;15.35;6.72;;;;;;;;;;5028259;28;20108;-60
2023/12/03 11:57:47;;;;;;;15.77;7.00;;;;;;;;;;5028178;28;20108;-59
2023/12/03 12:00:14;;;;;;;13.68;6.72;;;;;;;;;;5028992;28;20160;-59
2023/12/03 12:02:39;;;;;;;17.75;7.70;;;;;;;;;;5029860;28;20505;-59
2023/12/03 12:05:04;;;;;;;18.47;7.60;;;;;;;;;;5031125;28;20033;-60
2023/12/03 12:07:29;;;;;;;14.98;7.30;;;;;;;;;;5021288;28;20042;-59
2023/12/03 12:09:54;;;;;;;17.25;8.00;;;;;;;;;;5028268;28;20052;-59
2023/12/03 12:12:20;;;;;;;17.33;7.63;;;;;;;;;;5033645;28;20045;-60
2023/12/03 12:14:45;;;;;;;17.90;7.83;;;;;;;;;;5027265;28;20033;-60
2023/12/03 12:17:11;;;;;;;17.80;7.72;;;;;;;;;;5030213;28;20477;-60
2023/12/03 12:19:43;;;;;;;19.13;8.13;;;;;;;;;;5024629;28;20388;-60
2023/12/03 12:22:08;;;;;;;16.15;7.38;;;;;;;;;;5027057;28;20021;-60
2023/12/03 12:24:34;;;;;;;18.00;7.88;;;;;;;;;;5030316;28;20032;-60
2023/12/03 12:26:59;;;;;;;16.97;7.53;;;;;;;;;;5032867;28;20025;-60
2023/12/03 12:29:24;;;;;;;19.20;8.70;;;;;;;;;;5021010;28;20040;-60
2023/12/03 12:31:49;;;;;;;18.75;8.43;;;;;;;;;;5029309;28;20432;-60
2023/12/03 12:34:14;;;;;;;18.80;8.20;;;;;;;;;;5030769;28;20030;-59
2023/12/03 12:36:43;;;;;;;17.00;8.03;;;;;;;;;;5032542;28;20034;-60
2023/12/03 12:39:08;;;;;;;20.50;8.82;;;;;;;;;;5030841;28;20108;-59
2023/12/03 12:41:41;;;;;;;18.63;8.57;;;;;;;;;;5029950;28;20524;-60
2023/12/03 12:44:06;;;;;;;17.65;7.90;;;;;;;;;;5018777;28;20409;-60
2023/12/03 12:46:31;;;;;;;21.27;9.52;;;;;;;;;;5022908;28;20018;-60
2023/12/03 12:49:15;;;;;;;17.77;8.10;;;;;;;;;;5026250;28;20021;-60
2023/12/03 12:51:40;;;;;;;20.67;8.55;;;;;;;;;;5018870;28;20050;-60
2023/12/03 12:54:07;;;;;;;18.33;7.85;;;;;;;;;;5029170;28;20034;-60
2023/12/03 12:56:32;;;;;;;17.38;7.63;;;;;;;;;;5017553;28;20037;-60
2023/12/03 12:58:57;;;;;;;19.33;8.13;;;;;;;;;;5024153;28;20033;-60
2023/12/03 13:01:22;;;;;;;18.85;8.20;;;;;;;;;;5023115;28;20097;-60
2023/12/03 13:03:48;;;;;;;16.38;7.32;;;;;;;;;;5027573;28;20061;-60
2023/12/03 13:06:13;;;;;;;17.10;7.75;;;;;;;;;;5031125;28;20114;-60
2023/12/03 13:08:38;;;;;;;19.80;8.13;;;;;;;;;;5023198;28;20044;-60
2023/12/03 13:11:03;;;;;;;18.25;8.45;;;;;;;;;;5023105;28;20026;-60
2023/12/03 13:13:28;;;;;;;19.23;8.70;;;;;;;;;;5025497;28;20017;-60
2023/12/03 13:15:53;;;;;;;19.83;8.73;;;;;;;;;;5024865;28;20018;-60
2023/12/03 13:18:19;;;;;;;18.80;8.13;;;;;;;;;;5025158;28;20010;-60
2023/12/03 13:20:44;;;;;;;19.87;9.03;;;;;;;;;;5027339;28;20028;-60
2023/12/03 13:23:09;;;;;;;18.97;8.70;;;;;;;;;;5018191;28;20475;-60
2023/12/03 13:25:34;;;;;;;21.00;9.13;;;;;;;;;;5027118;28;20021;-60
2023/12/03 13:27:59;;;;;;;19.38;8.70;;;;;;;;;;5022084;28;20030;-60
2023/12/03 13:30:24;;;;;;;19.83;9.03;;;;;;;;;;5025180;28;20029;-60
2023/12/03 13:32:50;;;;;;;16.95;8.02;;;;;;;;;;5026622;28;20108;-60
2023/12/03 13:35:16;;;;;;;18.02;8.35;;;;;;;;;;5014571;28;20026;-60
2023/12/03 13:37:43;;;;;;;19.58;8.50;;;;;;;;;;5023244;28;20048;-60
2023/12/03 13:40:09;;;;;;;17.88;8.57;;;;;;;;;;5025595;28;20044;-60
2023/12/03 13:42:34;;;;;;;19.70;9.27;;;;;;;;;;5022825;28;20486;-59
2023/12/03 13:45:02;;;;;;;20.40;9.00;;;;;;;;;;5024423;28;20453;-59
2023/12/03 13:47:27;;;;;;;18.27;8.40;;;;;;;;;;5027918;28;20013;-60
2023/12/03 13:49:52;;;;;;;20.23;9.07;;;;;;;;;;5022688;28;20029;-60
2023/12/03 13:52:17;;;;;;;19.08;8.23;;;;;;;;;;5019272;28;20044;-60
2023/12/03 13:54:43;;;;;;;18.77;8.43;;;;;;;;;;5021514;28;20478;-61
2023/12/03 13:57:08;;;;;;;19.13;8.27;;;;;;;;;;5020178;28;20041;-60
2023/12/03 13:59:33;;;;;;;17.58;8.43;;;;;;;;;;5023482;28;20026;-60
2023/12/03 14:01:58;;;;;;;20.90;9.18;;;;;;;;;;5029835;28;20036;-60
2023/12/03 14:04:23;;;;;;;17.95;7.80;;;;;;;;;;5017602;28;20034;-60
2023/12/03 14:06:49;;;;;;;17.63;7.93;;;;;;;;;;5030597;28;20483;-61
2023/12/03 14:09:14;;;;;;;18.00;8.25;;;;;;;;;;5026318;28;20031;-60
2023/12/03 14:11:40;;;;;;;16.77;8.38;;;;;;;;;;5030811;28;20025;-60
2023/12/03 14:14:05;;;;;;;18.90;8.77;;;;;;;;;;5022276;28;20382;-60
2023/12/03 14:16:30;;;;;;;20.23;8.63;;;;;;;;;;5027729;28;20017;-60
2023/12/03 14:18:55;;;;;;;16.40;7.57;;;;;;;;;;5013169;28;20018;-61
2023/12/03 14:21:20;;;;;;;19.08;8.07;;;;;;;;;;5025770;28;20492;-60